Time;durP1;ratioP1;P1;durP2;ratioP2;P2;SDS_P1;SDS_P2;PMS_P1;PMS_P2;Temp;Humidity;BMP_temperature;BMP_pressure;BME280_temperature;BME280_humidity;BME280_pressure;Samples;Min_cycle;Max_cycle;Signal;HPM_P1;HPM_P2
2022/02/16 00:00:31;;;;;;;5.10;2.22;;;;;;;8.26;100.00;98899.09;5032191;28;20620;-77
2022/02/16 00:02:58;;;;;;;5.60;2.20;;;;;;;8.15;100.00;98901.53;5032370;28;20194;-77
2022/02/16 00:05:24;;;;;;;8.07;2.67;;;;;;;8.25;100.00;98901.84;5032424;28;20712;-77
2022/02/16 00:07:51;;;;;;;8.50;3.08;;;;;;;8.22;100.00;98899.38;5032228;28;20271;-77
2022/02/16 00:10:18;;;;;;;7.35;2.45;;;;;;;8.24;100.00;98884.06;5032090;28;20240;-77
2022/02/16 00:12:47;;;;;;;5.65;2.20;;;;;;;8.19;100.00;98886.16;5032530;28;20236;-77
2022/02/16 00:15:16;;;;;;;5.00;1.85;;;;;;;8.15;100.00;98872.91;5032321;28;20628;-76
2022/02/16 00:17:43;;;;;;;5.55;2.22;;;;;;;8.17;100.00;98874.66;5032319;28;20245;-77
2022/02/16 00:20:11;;;;;;;4.22;2.45;;;;;;;8.25;100.00;98861.63;5032231;28;20184;-76
2022/02/16 00:22:38;;;;;;;6.40;2.10;;;;;;;8.24;100.00;98868.81;5032178;28;20191;-76
2022/02/16 00:25:06;;;;;;;6.97;2.67;;;;;;;8.04;100.00;98872.69;5031958;28;20293;-78
2022/02/16 00:27:32;;;;;;;2.97;2.30;;;;;;;8.01;100.00;98872.03;5027551;28;20190;-77
2022/02/16 00:29:59;;;;;;;6.40;2.60;;;;;;;8.09;100.00;98861.69;5032169;28;20197;-77
2022/02/16 00:32:27;;;;;;;5.55;2.22;;;;;;;8.09;100.00;98872.41;5023916;28;20268;-77
2022/02/16 00:34:54;;;;;;;5.38;2.40;;;;;;;8.04;100.00;98856.59;5031952;28;20201;-77
2022/02/16 00:37:20;;;;;;;5.82;2.80;;;;;;;8.03;100.00;98844.16;5032086;28;20248;-77
2022/02/16 00:39:47;;;;;;;7.45;2.70;;;;;;;7.99;100.00;98849.78;5031417;28;20190;-77
2022/02/16 00:42:14;;;;;;;4.90;2.50;;;;;;;8.03;100.00;98849.53;5031514;28;20206;-77
2022/02/16 00:44:40;;;;;;;3.33;2.40;;;;;;;7.97;100.00;98854.38;5031849;28;20206;-77
2022/02/16 00:47:07;;;;;;;4.68;2.80;;;;;;;7.91;100.00;98843.09;5031351;28;20194;-77
2022/02/16 00:49:35;;;;;;;4.68;2.40;;;;;;;7.89;100.00;98836.94;5031896;28;20662;-77
2022/02/16 00:52:02;;;;;;;5.00;2.53;;;;;;;7.81;100.00;98833.00;5031370;28;20281;-77
2022/02/16 00:54:29;;;;;;;5.40;2.63;;;;;;;7.87;100.00;98830.81;5031619;28;20717;-77
2022/02/16 00:56:57;;;;;;;6.53;2.65;;;;;;;7.91;100.00;98840.41;5031579;28;20190;-77
2022/02/16 00:59:24;;;;;;;3.90;2.50;;;;;;;7.84;100.00;98830.13;5031834;28;20194;-77
2022/02/16 01:01:50;;;;;;;3.40;2.22;;;;;;;7.87;100.00;98821.91;5031873;28;20297;-77
2022/02/16 01:04:17;;;;;;;2.80;2.55;;;;;;;7.93;100.00;98816.16;5031284;28;20738;-77
2022/02/16 01:06:45;;;;;;;4.15;2.45;;;;;;;7.81;100.00;98824.94;5031896;28;20624;-78
2022/02/16 01:09:11;;;;;;;8.57;3.08;;;;;;;7.75;100.00;98815.44;5031544;28;20232;-77
2022/02/16 01:11:38;;;;;;;3.58;2.65;;;;;;;7.86;100.00;98804.09;5030495;28;20252;-77
2022/02/16 01:14:05;;;;;;;4.72;2.63;;;;;;;7.88;100.00;98799.50;5031507;28;20631;-77
2022/02/16 01:16:33;;;;;;;5.57;2.47;;;;;;;7.94;100.00;98799.13;5031901;28;20187;-77
2022/02/16 01:19:00;;;;;;;3.92;2.50;;;;;;;7.84;100.00;98790.78;5031314;28;20592;-77
2022/02/16 01:21:26;;;;;;;4.28;2.75;;;;;;;7.78;100.00;98798.31;5031328;28;20214;-78
2022/02/16 01:23:54;;;;;;;7.35;2.70;;;;;;;7.69;100.00;98787.19;5031391;28;20225;-77
2022/02/16 01:26:23;;;;;;;10.30;2.80;;;;;;;7.82;100.00;98784.63;5031339;28;20296;-77
2022/02/16 01:28:50;;;;;;;4.50;2.50;;;;;;;7.98;100.00;98797.97;5031203;28;20275;-77
2022/02/16 01:31:17;;;;;;;8.63;2.53;;;;;;;8.02;100.00;98793.31;5030616;28;20194;-77
2022/02/16 01:33:44;;;;;;;6.20;2.40;;;;;;;8.12;100.00;98784.63;5031312;28;20682;-77
2022/02/16 01:36:10;;;;;;;3.10;2.60;;;;;;;8.10;100.00;98791.03;5031036;28;20278;-77
2022/02/16 01:38:37;;;;;;;4.53;2.40;;;;;;;8.06;100.00;98784.97;5031086;28;20198;-77
2022/02/16 01:41:05;;;;;;;4.50;2.15;;;;;;;8.05;100.00;98766.28;5030467;28;21612;-77
2022/02/16 01:43:32;;;;;;;5.30;2.22;;;;;;;8.04;100.00;98764.59;5030612;28;20260;-77
2022/02/16 01:46:00;;;;;;;4.05;2.40;;;;;;;7.84;100.00;98752.41;5030260;28;20721;-77
2022/02/16 01:48:26;;;;;;;5.07;2.50;;;;;;;7.83;100.00;98756.03;5031273;28;20203;-77
2022/02/16 01:50:53;;;;;;;2.80;2.15;;;;;;;7.91;100.00;98754.63;5032532;28;20557;-77
2022/02/16 01:53:20;;;;;;;3.90;2.28;;;;;;;8.04;100.00;98754.72;5034675;28;20230;-77
2022/02/16 01:55:47;;;;;;;4.95;2.20;;;;;;;8.08;100.00;98740.19;5034997;28;20233;-78
2022/02/16 01:58:16;;;;;;;4.32;2.60;;;;;;;7.98;100.00;98727.44;5034909;28;20616;-78
2022/02/16 02:00:44;;;;;;;2.97;2.53;;;;;;;7.88;100.00;98733.34;5034470;28;20202;-77
2022/02/16 02:03:11;;;;;;;5.25;2.30;;;;;;;7.87;100.00;98736.16;5034909;28;20197;-77
2022/02/16 02:05:37;;;;;;;2.67;2.05;;;;;;;7.72;100.00;98736.09;5035457;28;20208;-78
2022/02/16 02:08:05;;;;;;;5.05;2.30;;;;;;;7.77;100.00;98721.56;5035094;28;20309;-76
2022/02/16 02:10:31;;;;;;;3.75;2.15;;;;;;;7.73;100.00;98713.72;5034603;28;20200;-77
2022/02/16 02:12:58;;;;;;;4.82;2.70;;;;;;;7.69;100.00;98708.66;5034612;28;20850;-78
2022/02/16 02:15:26;;;;;;;5.93;2.80;;;;;;;7.72;100.00;98716.47;5034557;28;20202;-77
2022/02/16 02:17:53;;;;;;;4.38;2.60;;;;;;;7.73;100.00;98703.00;5034652;28;20190;-78
2022/02/16 02:20:23;;;;;;;3.13;2.88;;;;;;;7.70;100.00;98697.81;5034779;28;20209;-78
2022/02/16 02:22:50;;;;;;;3.30;2.20;;;;;;;7.85;100.00;98692.50;5033545;28;20210;-78
2022/02/16 02:25:17;;;;;;;4.40;2.30;;;;;;;7.85;100.00;98692.50;5034733;28;20199;-76
2022/02/16 02:27:43;;;;;;;3.35;2.55;;;;;;;7.76;100.00;98685.03;5034414;28;20193;-77
2022/02/16 02:30:12;;;;;;;3.50;2.45;;;;;;;7.72;100.00;98673.63;5033919;28;20224;-78
2022/02/16 02:32:41;;;;;;;4.05;2.35;;;;;;;7.83;100.00;98681.84;5034267;28;20587;-78
2022/02/16 02:35:10;;;;;;;3.25;2.20;;;;;;;7.77;100.00;98668.81;5034244;28;20202;-78
2022/02/16 02:37:38;;;;;;;3.38;2.20;;;;;;;7.82;100.00;98666.72;5033759;28;20201;-78
2022/02/16 02:40:07;;;;;;;3.17;2.22;;;;;;;7.92;100.00;98669.72;5034331;28;20198;-78
2022/02/16 02:42:36;;;;;;;3.88;2.50;;;;;;;7.84;100.00;98661.28;5033123;28;20218;-78
2022/02/16 02:45:04;;;;;;;2.45;2.00;;;;;;;7.86;100.00;98667.41;5027967;28;20182;-78
2022/02/16 02:47:31;;;;;;;2.33;2.10;;;;;;;7.88;100.00;98663.66;5033844;28;20216;-77
2022/02/16 02:49:57;;;;;;;2.65;1.73;;;;;;;7.78;100.00;98653.59;5034076;28;20641;-77
2022/02/16 02:52:24;;;;;;;2.38;2.15;;;;;;;7.71;100.00;98640.59;5033687;28;20533;-78
2022/02/16 02:54:52;;;;;;;2.88;2.00;;;;;;;7.78;100.00;98642.88;5033303;28;20264;-77
2022/02/16 02:57:18;;;;;;;2.50;2.30;;;;;;;7.81;100.00;98638.22;5033694;28;20198;-78
2022/02/16 02:59:45;;;;;;;3.20;2.22;;;;;;;7.66;100.00;98631.13;5033282;28;20198;-77
2022/02/16 03:02:12;;;;;;;2.35;2.05;;;;;;;7.59;100.00;98629.78;5033406;28;20681;-77
2022/02/16 03:04:38;;;;;;;2.40;2.15;;;;;;;7.75;100.00;98624.31;5033505;28;20285;-78
2022/02/16 03:07:05;;;;;;;2.22;2.03;;;;;;;7.90;100.00;98623.38;5033857;28;20723;-77
2022/02/16 03:09:32;;;;;;;4.70;2.50;;;;;;;7.79;100.00;98615.16;5033246;28;20285;-77
2022/02/16 03:12:00;;;;;;;2.58;2.00;;;;;;;7.80;100.00;98611.50;5033275;28;20218;-77
2022/02/16 03:14:27;;;;;;;4.47;2.30;;;;;;;7.85;100.00;98623.66;5033484;28;20212;-76
2022/02/16 03:16:54;;;;;;;2.58;2.00;;;;;;;7.75;100.00;98622.50;5032887;28;20193;-77
2022/02/16 03:19:21;;;;;;;3.67;2.45;;;;;;;7.75;100.00;98609.09;5032833;28;20196;-77
2022/02/16 03:21:48;;;;;;;2.15;1.95;;;;;;;7.70;100.00;98601.34;5033140;28;20225;-77
2022/02/16 03:24:14;;;;;;;3.55;1.90;;;;;;;7.76;100.00;98597.44;5033046;28;20291;-78
2022/02/16 03:26:41;;;;;;;2.75;1.70;;;;;;;7.66;100.00;98594.47;5032943;28;20230;-76
2022/02/16 03:29:09;;;;;;;1.80;1.70;;;;;;;7.81;100.00;98602.53;5033337;28;20212;-76
2022/02/16 03:31:35;;;;;;;2.90;1.80;;;;;;;7.76;100.00;98596.59;5025233;28;20568;-77
2022/02/16 03:34:02;;;;;;;2.20;2.00;;;;;;;7.81;100.00;98610.56;5033350;28;20593;-76
2022/02/16 03:36:29;;;;;;;2.17;1.98;;;;;;;7.83;100.00;98605.97;5032676;28;20194;-78
2022/02/16 03:38:57;;;;;;;2.35;2.15;;;;;;;7.69;100.00;98596.97;5033230;28;20214;-77
2022/02/16 03:41:23;;;;;;;3.03;2.00;;;;;;;7.77;100.00;98598.31;5032313;28;20222;-77
2022/02/16 03:43:50;;;;;;;3.10;2.15;;;;;;;7.77;100.00;98601.84;5033134;28;20592;-77
2022/02/16 03:46:18;;;;;;;2.00;1.90;;;;;;;7.81;100.00;98608.72;5032276;28;20195;-77
2022/02/16 03:48:45;;;;;;;4.43;2.22;;;;;;;7.95;100.00;98610.53;5032854;28;20195;-77
2022/02/16 03:51:11;;;;;;;2.92;2.20;;;;;;;7.96;100.00;98614.97;5032084;28;20197;-77
2022/02/16 03:53:38;;;;;;;2.22;2.03;;;;;;;7.93;100.00;98609.78;5032475;28;20591;-77
2022/02/16 03:56:05;;;;;;;2.30;2.10;;;;;;;8.02;100.00;98609.19;5032384;28;20186;-76
2022/02/16 03:58:32;;;;;;;3.85;2.28;;;;;;;7.97;100.00;98600.59;5025145;28;20621;-77
2022/02/16 04:00:58;;;;;;;2.17;1.98;;;;;;;8.02;100.00;98597.63;5032353;28;20278;-77
2022/02/16 04:03:26;;;;;;;5.35;1.98;;;;;;;7.95;100.00;98597.13;5032476;28;20624;-77
2022/02/16 04:05:53;;;;;;;4.90;2.15;;;;;;;7.85;100.00;98585.28;5031864;28;20186;-76
2022/02/16 04:08:19;;;;;;;2.42;2.00;;;;;;;7.92;100.00;98584.78;5032516;28;20284;-77
2022/02/16 04:10:46;;;;;;;3.35;1.90;;;;;;;7.93;100.00;98574.94;5032461;28;20190;-77
2022/02/16 04:13:13;;;;;;;4.20;2.15;;;;;;;7.97;100.00;98575.59;5030808;28;20190;-77
2022/02/16 04:15:39;;;;;;;1.92;1.63;;;;;;;7.99;100.00;98571.88;5031621;28;20206;-76
2022/02/16 04:18:06;;;;;;;2.65;1.55;;;;;;;7.88;100.00;98566.31;5032188;28;20282;-77
2022/02/16 04:20:34;;;;;;;3.70;2.45;;;;;;;7.88;100.00;98556.47;5032392;28;20209;-77
2022/02/16 04:23:01;;;;;;;2.45;1.73;;;;;;;7.98;100.00;98562.09;5031921;28;20314;-77
2022/02/16 04:25:27;;;;;;;2.58;2.05;;;;;;;7.93;100.00;98553.50;5031962;28;20205;-77
2022/02/16 04:27:54;;;;;;;4.35;2.20;;;;;;;8.03;100.00;98560.00;5031565;28;20281;-77
2022/02/16 04:30:21;;;;;;;2.20;1.88;;;;;;;8.02;100.00;98560.09;5032296;28;20273;-77
2022/02/16 04:32:47;;;;;;;3.58;2.05;;;;;;;7.88;100.00;98560.97;5031922;28;20281;-77
2022/02/16 04:35:14;;;;;;;2.95;2.05;;;;;;;7.96;100.00;98566.72;5031465;28;20198;-78
2022/02/16 04:37:42;;;;;;;4.47;2.22;;;;;;;7.90;100.00;98556.38;5032013;28;20269;-77
2022/02/16 04:40:11;;;;;;;2.63;2.38;;;;;;;8.02;100.00;98555.56;5031551;28;20209;-77
2022/02/16 04:42:38;;;;;;;3.38;2.13;;;;;;;8.09;100.00;98564.94;5031887;28;20222;-77
2022/02/16 04:45:06;;;;;;;2.50;2.10;;;;;;;7.77;100.00;98556.28;5032392;28;20190;-77
2022/02/16 04:47:32;;;;;;;4.13;2.28;;;;;;;7.90;100.00;98559.91;5032348;28;20225;-77
2022/02/16 04:49:59;;;;;;;2.75;2.05;;;;;;;7.92;100.00;98549.94;5031904;28;20263;-77
2022/02/16 04:52:34;;;;;;;3.38;1.98;;;;;;;7.81;100.00;98551.59;5031809;28;20200;-78
2022/02/16 04:55:03;;;;;;;3.00;2.00;;;;;;;8.07;100.00;98548.13;5030966;28;20317;-77
2022/02/16 04:57:30;;;;;;;4.85;2.92;;;;;;;7.87;100.00;98551.22;5031622;28;20213;-77
2022/02/16 04:59:58;;;;;;;2.40;2.17;;;;;;;7.96;100.00;98547.94;5031622;28;20201;-78
2022/02/16 05:02:25;;;;;;;5.53;2.00;;;;;;;8.06;100.00;98538.34;5032166;28;20322;-78
2022/02/16 05:04:52;;;;;;;3.95;2.05;;;;;;;8.06;100.00;98524.94;5031314;28;20200;-78
2022/02/16 05:07:18;;;;;;;2.30;2.10;;;;;;;7.90;100.00;98522.38;5031789;28;20277;-77
2022/02/16 05:09:45;;;;;;;3.22;2.30;;;;;;;7.95;100.00;98524.75;5031711;28;20194;-78
2022/02/16 05:12:13;;;;;;;2.10;1.90;;;;;;;7.96;100.00;98513.09;5031709;28;20628;-78
2022/02/16 05:14:41;;;;;;;5.10;3.55;;;;;;;7.97;100.00;98504.09;5031742;28;20194;-77
2022/02/16 05:17:08;;;;;;;3.33;2.33;;;;;;;8.01;100.00;98519.00;5031873;28;20662;-78
2022/02/16 05:19:35;;;;;;;2.40;2.00;;;;;;;7.99;100.00;98509.38;5031192;28;20222;-77
2022/02/16 05:22:01;;;;;;;2.85;1.92;;;;;;;8.06;100.00;98500.81;5031021;28;20680;-76
2022/02/16 05:24:28;;;;;;;1.83;1.60;;;;;;;7.90;100.00;98497.41;5032716;28;20233;-77
2022/02/16 05:26:55;;;;;;;2.33;2.13;;;;;;;8.08;100.00;98495.34;5035042;28;20195;-77
2022/02/16 05:29:23;;;;;;;2.10;1.77;;;;;;;8.11;100.00;98481.75;5035809;28;20560;-81
2022/02/16 05:31:49;;;;;;;3.05;2.05;;;;;;;8.14;100.00;98481.56;5035158;28;20551;-77
2022/02/16 05:34:16;;;;;;;9.25;3.85;;;;;;;8.17;100.00;98484.03;5035747;28;20195;-78
2022/02/16 05:36:43;;;;;;;2.05;1.83;;;;;;;8.23;100.00;98485.41;5035361;28;20210;-77
2022/02/16 05:39:10;;;;;;;3.55;1.92;;;;;;;8.19;100.00;98486.63;5035412;28;20187;-78
2022/02/16 05:41:36;;;;;;;2.47;2.10;;;;;;;8.12;100.00;98481.66;5034844;28;20279;-77
2022/02/16 05:44:03;;;;;;;3.35;2.08;;;;;;;7.89;100.00;98475.13;5035041;28;20213;-77
2022/02/16 05:46:31;;;;;;;2.50;1.88;;;;;;;8.02;100.00;98477.84;5035249;28;20676;-78
2022/02/16 05:48:57;;;;;;;4.15;2.30;;;;;;;7.99;100.00;98472.69;5034637;28;20205;-77
2022/02/16 05:51:24;;;;;;;3.50;2.20;;;;;;;8.08;100.00;98466.72;5035250;28;20214;-77
2022/02/16 05:53:51;;;;;;;3.38;2.25;;;;;;;8.05;100.00;98469.63;5035015;28;20591;-77
2022/02/16 05:56:17;;;;;;;2.00;1.63;;;;;;;8.06;100.00;98462.41;5035106;28;20208;-78
2022/02/16 05:58:44;;;;;;;2.38;1.88;;;;;;;8.00;100.00;98457.47;5034837;28;20281;-78
2022/02/16 06:01:11;;;;;;;2.65;2.28;;;;;;;7.93;100.00;98468.56;5035039;28;20675;-76
2022/02/16 06:03:39;;;;;;;7.53;3.20;;;;;;;7.94;100.00;98458.72;5034546;28;20323;-78
2022/02/16 06:06:05;;;;;;;2.65;2.33;;;;;;;7.92;100.00;98450.78;5034872;28;20206;-78
2022/02/16 06:08:32;;;;;;;5.57;2.47;;;;;;;8.01;100.00;98441.28;5034653;28;20221;-78
2022/02/16 06:11:00;;;;;;;2.55;1.85;;;;;;;7.99;100.00;98450.38;5034984;28;20233;-76
2022/02/16 06:13:27;;;;;;;3.50;2.38;;;;;;;8.00;100.00;98436.00;5034600;28;20237;-77
2022/02/16 06:15:53;;;;;;;3.70;1.95;;;;;;;8.01;100.00;98443.97;5033720;28;20277;-78
2022/02/16 06:18:20;;;;;;;4.88;2.20;;;;;;;8.03;100.00;98439.38;5034029;28;20310;-78
2022/02/16 06:20:48;;;;;;;2.95;2.40;;;;;;;8.14;100.00;98434.16;5034859;28;20534;-77
2022/02/16 06:23:15;;;;;;;2.80;2.22;;;;;;;8.07;100.00;98430.16;5033482;28;20214;-77
2022/02/16 06:25:42;;;;;;;2.88;2.40;;;;;;;8.15;100.00;98422.44;5034452;28;20194;-79
2022/02/16 06:28:08;;;;;;;4.70;2.05;;;;;;;8.11;100.00;98425.44;5033630;28;20230;-78
2022/02/16 06:30:35;;;;;;;2.92;2.22;;;;;;;8.07;100.00;98426.59;5034472;28;20273;-78
2022/02/16 06:33:02;;;;;;;2.60;2.40;;;;;;;8.08;100.00;98417.63;5034339;28;20628;-79
2022/02/16 06:35:29;;;;;;;3.30;2.45;;;;;;;8.09;100.00;98425.53;5033529;28;20281;-76
2022/02/16 06:37:57;;;;;;;7.68;2.10;;;;;;;7.99;100.00;98429.81;5033345;28;20190;-77
2022/02/16 06:40:26;;;;;;;3.55;2.63;;;;;;;8.09;100.00;98430.03;5033864;28;20201;-76
2022/02/16 06:42:53;;;;;;;2.45;2.25;;;;;;;7.91;100.00;98440.16;5033176;28;20206;-77
2022/02/16 06:45:20;;;;;;;6.43;4.22;;;;;;;7.99;100.00;98432.47;5033494;28;20214;-77
2022/02/16 06:47:46;;;;;;;6.65;2.70;;;;;;;7.93;100.00;98425.69;5033923;28;20577;-77
2022/02/16 06:50:13;;;;;;;2.90;2.65;;;;;;;7.98;100.00;98420.03;5033035;28;20288;-77
2022/02/16 06:52:40;;;;;;;2.92;2.30;;;;;;;8.07;100.00;98427.47;5033642;28;20269;-77
2022/02/16 06:55:09;;;;;;;3.28;2.40;;;;;;;8.13;100.00;98419.00;5033297;28;20314;-77
2022/02/16 06:57:36;;;;;;;2.55;2.35;;;;;;;8.10;100.00;98421.91;5025891;28;20194;-78
2022/02/16 07:00:04;;;;;;;2.90;2.30;;;;;;;8.11;100.00;98428.97;5033500;28;20199;-77
2022/02/16 07:02:30;;;;;;;3.05;2.67;;;;;;;8.18;100.00;98412.47;5032405;28;20301;-78
2022/02/16 07:04:58;;;;;;;2.75;2.38;;;;;;;8.25;100.00;98411.09;5034065;28;20203;-79
2022/02/16 07:07:26;;;;;;;4.13;2.42;;;;;;;8.27;100.00;98417.22;5036425;28;20646;-76
2022/02/16 07:09:53;;;;;;;3.15;2.25;;;;;;;8.29;100.00;98420.66;5033197;28;20187;-77
2022/02/16 07:12:21;;;;;;;2.20;2.00;;;;;;;8.11;100.00;98423.59;5033511;28;20202;-77
2022/02/16 07:14:51;;;;;;;3.40;2.60;;;;;;;8.12;100.00;98425.34;5033474;28;20289;-76
2022/02/16 07:17:17;;;;;;;2.80;2.00;;;;;;;8.06;100.00;98422.22;5033729;28;20191;-76
2022/02/16 07:19:44;;;;;;;6.68;3.35;;;;;;;8.05;100.00;98421.34;5034186;28;20187;-75
2022/02/16 07:22:11;;;;;;;3.10;2.22;;;;;;;8.13;100.00;98410.97;5033266;28;20265;-77
2022/02/16 07:24:37;;;;;;;3.53;2.55;;;;;;;8.13;100.00;98415.47;5032980;28;20228;-76
2022/02/16 07:27:04;;;;;;;4.68;2.13;;;;;;;8.18;100.00;98405.28;5032852;28;20295;-77
2022/02/16 07:29:32;;;;;;;4.63;1.98;;;;;;;8.06;100.00;98406.13;5025670;28;20187;-76
2022/02/16 07:31:59;;;;;;;4.13;3.35;;;;;;;8.18;100.00;98410.66;5033219;28;20282;-77
2022/02/16 07:34:27;;;;;;;2.00;1.65;;;;;;;8.21;100.00;98414.94;5030417;28;20624;-78
2022/02/16 07:36:53;;;;;;;3.58;2.10;;;;;;;8.24;100.00;98412.94;5032317;28;20190;-78
2022/02/16 07:39:20;;;;;;;1.98;1.80;;;;;;;8.03;100.00;98422.44;5032646;28;20206;-77
2022/02/16 07:41:47;;;;;;;2.65;1.90;;;;;;;7.94;100.00;98414.03;5032353;28;20223;-76
2022/02/16 07:44:14;;;;;;;2.50;2.30;;;;;;;8.00;100.00;98411.88;5032834;28;20672;-75
2022/02/16 07:46:42;;;;;;;4.55;2.42;;;;;;;8.19;100.00;98398.13;5032357;28;20559;-77
2022/02/16 07:49:09;;;;;;;1.80;1.70;;;;;;;8.15;100.00;98408.19;5031000;28;20216;-76
2022/02/16 07:51:35;;;;;;;6.43;1.92;;;;;;;8.20;100.00;98394.47;5031713;28;20281;-76
2022/02/16 07:54:02;;;;;;;3.22;2.03;;;;;;;8.29;100.00;98394.69;5030977;28;20268;-77
2022/02/16 07:56:33;;;;;;;3.17;2.38;;;;;;;8.41;100.00;98393.06;5031612;28;20194;-76
2022/02/16 07:59:04;;;;;;;4.00;2.38;;;;;;;8.52;100.00;98393.19;5031280;28;20203;-76
2022/02/16 08:01:31;;;;;;;3.55;1.90;;;;;;;8.34;100.00;98389.03;5033120;28;20276;-76
2022/02/16 08:04:15;;;;;;;3.45;2.38;;;;;;;8.43;100.00;98387.56;5032015;28;20655;-76
2022/02/16 08:06:42;;;;;;;2.58;2.38;;;;;;;8.50;100.00;98380.81;5031012;28;20237;-76
2022/02/16 08:09:10;;;;;;;3.88;1.60;;;;;;;8.50;100.00;98379.00;5032634;28;20310;-77
2022/02/16 08:11:37;;;;;;;1.92;1.73;;;;;;;8.59;100.00;98366.75;5032155;28;20194;-76
2022/02/16 08:14:04;;;;;;;1.70;1.60;;;;;;;8.66;100.00;98370.75;5032160;28;20608;-77
2022/02/16 08:16:31;;;;;;;2.50;1.75;;;;;;;8.68;100.00;98362.56;5029934;28;20199;-76
2022/02/16 08:18:59;;;;;;;6.35;4.63;;;;;;;8.60;100.00;98365.81;5032356;28;20688;-76
2022/02/16 08:21:25;;;;;;;5.28;3.63;;;;;;;8.58;100.00;98357.00;5032195;28;20565;-76
2022/02/16 08:23:53;;;;;;;1.98;1.77;;;;;;;8.43;100.00;98350.00;5032040;28;20320;-75
2022/02/16 08:26:19;;;;;;;2.85;1.80;;;;;;;8.36;100.00;98357.59;5030934;28;20206;-76
2022/02/16 08:28:46;;;;;;;2.15;1.88;;;;;;;8.42;100.00;98351.00;5032211;28;20290;-76
2022/02/16 08:31:13;;;;;;;2.60;1.95;;;;;;;8.60;100.00;98343.50;5031574;28;20730;-75
2022/02/16 08:33:40;;;;;;;2.08;1.80;;;;;;;8.44;100.00;98355.28;5031604;28;20313;-77
2022/02/16 08:36:11;;;;;;;2.53;2.30;;;;;;;8.59;100.00;98345.28;5030123;28;20283;-74
2022/02/16 08:38:38;;;;;;;2.53;1.90;;;;;;;8.73;100.00;98345.22;5031122;28;20234;-74
2022/02/16 08:41:04;;;;;;;2.70;1.80;;;;;;;8.63;100.00;98340.59;5031714;28;20261;-75
2022/02/16 08:43:31;;;;;;;4.28;1.88;;;;;;;8.69;100.00;98337.47;5031735;28;20700;-74
2022/02/16 08:45:59;;;;;;;2.47;1.90;;;;;;;8.73;100.00;98328.25;5031055;28;20231;-74
2022/02/16 08:48:26;;;;;;;2.00;1.80;;;;;;;8.68;100.00;98338.44;5032165;28;20200;-74
2022/02/16 08:50:54;;;;;;;2.08;1.67;;;;;;;8.69;100.00;98349.06;5031256;28;20663;-76
2022/02/16 08:53:22;;;;;;;2.72;1.55;;;;;;;8.68;100.00;98336.63;5030694;28;20232;-77
2022/02/16 08:55:49;;;;;;;1.73;1.60;;;;;;;8.65;100.00;98331.47;5029539;28;20199;-75
2022/02/16 08:58:16;;;;;;;2.35;1.70;;;;;;;8.71;100.00;98325.66;5031910;28;20326;-74
2022/02/16 09:00:43;;;;;;;2.03;1.60;;;;;;;8.61;100.00;98321.06;5031088;28;20981;-75
2022/02/16 09:03:10;;;;;;;5.05;3.17;;;;;;;8.80;100.00;98326.00;5033500;28;20326;-75
2022/02/16 09:05:36;;;;;;;2.05;1.73;;;;;;;9.00;100.00;98324.53;5033088;28;20272;-76
2022/02/16 09:08:03;;;;;;;2.70;1.77;;;;;;;8.89;100.00;98325.34;5032330;28;20203;-76
2022/02/16 09:10:31;;;;;;;1.83;1.73;;;;;;;8.87;100.00;98341.53;5032621;28;20286;-75
2022/02/16 09:12:58;;;;;;;2.53;1.75;;;;;;;8.88;100.00;98335.19;5032483;28;20215;-75
2022/02/16 09:15:26;;;;;;;1.90;1.65;;;;;;;8.80;100.00;98340.25;5031702;28;20357;-77
2022/02/16 09:17:53;;;;;;;2.15;1.60;;;;;;;8.77;100.00;98325.25;5029977;28;20257;-78
2022/02/16 09:20:20;;;;;;;1.88;1.70;;;;;;;8.73;100.00;98333.63;5031552;28;20207;-77
2022/02/16 09:22:46;;;;;;;2.53;2.10;;;;;;;8.88;100.00;98319.09;5031909;28;20295;-77
2022/02/16 09:25:13;;;;;;;2.00;1.80;;;;;;;8.94;100.00;98328.53;5032083;28;21000;-77
2022/02/16 09:27:42;;;;;;;1.73;1.63;;;;;;;9.05;100.00;98323.25;5031447;28;20930;-76
2022/02/16 09:30:10;;;;;;;1.60;1.50;;;;;;;9.07;100.00;98328.53;5030938;28;20241;-79
2022/02/16 09:32:39;;;;;;;1.60;1.40;;;;;;;9.09;100.00;98323.88;5028546;28;20212;-78
2022/02/16 09:35:07;;;;;;;1.95;1.70;;;;;;;9.13;100.00;98317.31;5030858;28;20284;-76
2022/02/16 09:37:33;;;;;;;1.85;1.63;;;;;;;9.06;100.00;98342.91;5029383;28;20283;-77
2022/02/16 09:40:00;;;;;;;1.65;1.55;;;;;;;9.13;100.00;98323.53;5031068;28;20191;-77
2022/02/16 09:42:27;;;;;;;2.97;1.88;;;;;;;9.16;100.00;98317.13;5030980;28;20287;-76
2022/02/16 09:44:58;;;;;;;2.47;1.92;;;;;;;9.33;100.00;98310.50;5029559;28;20213;-76
2022/02/16 09:47:25;;;;;;;1.92;1.83;;;;;;;9.45;100.00;98311.41;5029294;28;20291;-75
2022/02/16 09:49:52;;;;;;;2.50;2.30;;;;;;;9.43;100.00;98319.59;5030810;28;20226;-75
2022/02/16 09:52:20;;;;;;;4.25;2.85;;;;;;;9.46;100.00;98315.84;5031410;28;20248;-76
2022/02/16 09:54:47;;;;;;;2.80;2.60;;;;;;;9.11;100.00;98308.50;5030777;28;20229;-79
2022/02/16 09:57:14;;;;;;;3.20;2.90;;;;;;;9.29;100.00;98309.00;5028559;28;20271;-75
2022/02/16 09:59:40;;;;;;;4.35;3.95;;;;;;;9.26;100.00;98298.50;5030489;28;20236;-75
2022/02/16 10:02:12;;;;;;;4.00;3.47;;;;;;;9.37;100.00;98312.84;5029849;28;20276;-77
2022/02/16 10:04:41;;;;;;;3.60;2.90;;;;;;;9.36;100.00;98319.19;5027894;28;20231;-76
2022/02/16 10:07:22;;;;;;;3.30;3.00;;;;;;;9.24;100.00;98317.41;5031302;28;20201;-76
2022/02/16 10:09:49;;;;;;;3.60;3.30;;;;;;;9.34;100.00;98322.97;5030795;28;20195;-77
2022/02/16 10:12:15;;;;;;;3.60;3.30;;;;;;;9.36;100.00;98331.75;5032111;28;20608;-79
2022/02/16 10:14:42;;;;;;;3.58;3.28;;;;;;;9.38;100.00;98325.31;5034039;28;20197;-76
2022/02/16 10:17:22;;;;;;;4.07;3.35;;;;;;;9.37;100.00;98312.00;5034155;28;20184;-75
2022/02/16 10:19:51;;;;;;;3.88;3.50;;;;;;;9.44;100.00;98323.16;5016907;28;20665;-76
2022/02/16 10:22:19;;;;;;;3.03;2.83;;;;;;;9.52;100.00;98310.88;5032822;28;20191;-77
2022/02/16 10:24:46;;;;;;;4.00;3.67;;;;;;;9.57;100.00;98307.84;5033529;28;20611;-77
2022/02/16 10:27:14;;;;;;;3.53;3.22;;;;;;;9.57;100.00;98311.38;5033892;28;20238;-76
2022/02/16 10:29:42;;;;;;;3.75;3.45;;;;;;;9.46;100.00;98310.47;5033108;28;20667;-77
2022/02/16 10:32:10;;;;;;;3.35;3.05;;;;;;;9.36;100.00;98313.81;5027596;28;20753;-76
2022/02/16 10:34:49;;;;;;;3.60;3.30;;;;;;;9.05;100.00;98311.66;5033719;28;20251;-75
2022/02/16 10:37:17;;;;;;;4.68;3.50;;;;;;;9.07;100.00;98328.53;5033706;28;20278;-74
2022/02/16 10:39:59;;;;;;;4.03;3.72;;;;;;;9.18;100.00;98329.47;5033175;28;20276;-76
2022/02/16 10:42:26;;;;;;;4.13;3.83;;;;;;;9.29;100.00;98314.38;5033560;28;20578;-76
2022/02/16 10:45:05;;;;;;;3.75;3.45;;;;;;;9.42;100.00;98319.72;5035622;28;20216;-75
2022/02/16 10:47:54;;;;;;;4.28;3.85;;;;;;;9.27;100.00;98330.63;5025103;28;20205;-77
2022/02/16 10:50:23;;;;;;;4.88;3.60;;;;;;;9.34;100.00;98345.31;5033719;28;20188;-77
2022/02/16 10:52:53;;;;;;;4.47;4.07;;;;;;;9.42;100.00;98327.78;5032828;28;20196;-75
2022/02/16 10:55:21;;;;;;;5.97;5.43;;;;;;;9.46;100.00;98326.59;5029026;28;20218;-77
2022/02/16 10:57:47;;;;;;;4.53;3.67;;;;;;;9.45;100.00;98336.47;5033850;28;20530;-78
2022/02/16 11:00:16;;;;;;;3.20;2.90;;;;;;;9.26;100.00;98334.25;5033308;28;20286;-78
2022/02/16 11:02:47;;;;;;;3.70;3.40;;;;;;;9.18;100.00;98317.88;5033313;28;20204;-78
2022/02/16 11:05:17;;;;;;;4.45;4.13;;;;;;;9.34;100.00;98315.78;5031534;28;20239;-77
2022/02/16 11:07:45;;;;;;;3.40;2.92;;;;;;;9.52;100.00;98316.25;5032752;28;20633;-79
2022/02/16 11:10:12;;;;;;;3.67;3.30;;;;;;;9.78;100.00;98310.75;5033136;28;20186;-76
2022/02/16 11:12:39;;;;;;;5.30;4.75;;;;;;;9.56;100.00;98317.69;5033033;28;20235;-76
2022/02/16 11:15:09;;;;;;;2.83;2.63;;;;;;;9.58;100.00;98323.81;5032717;28;20264;-78
2022/02/16 11:17:36;;;;;;;3.10;2.78;;;;;;;9.65;100.00;98324.22;5033080;28;20199;-81
2022/02/16 11:20:25;;;;;;;3.70;3.40;;;;;;;9.74;100.00;98320.84;5032782;28;20232;-79
2022/02/16 11:22:55;;;;;;;3.63;3.28;;;;;;;9.89;100.00;98312.63;5027541;28;20297;-79
2022/02/16 11:25:31;;;;;;;6.47;5.57;;;;;;;9.99;100.00;98313.63;5033004;28;20275;-79
2022/02/16 11:28:00;;;;;;;3.78;3.47;;;;;;;10.16;100.00;98315.88;5032964;28;20253;-79
2022/02/16 11:30:32;;;;;;;3.80;3.50;;;;;;;9.93;100.00;98323.03;5032776;28;20201;-79
2022/02/16 11:33:20;;;;;;;3.88;3.30;;;;;;;9.86;100.00;98315.53;5020432;28;20639;-79
2022/02/16 11:35:49;;;;;;;3.60;3.30;;;;;;;10.09;100.00;98301.19;5014358;28;20190;-80